Time;durP1;ratioP1;P1;durP2;ratioP2;P2;SDS_P1;SDS_P2;PMS_P1;PMS_P2;Temp;Humidity;BMP_temperature;BMP_pressure;BME280_temperature;BME280_humidity;BME280_pressure;Samples;Min_cycle;Max_cycle;Signal;HPM_P1;HPM_P2
2021/08/20 00:00:58;;;;;;;2.00;1.35;;;26.00;53.70;;;;;;4953731;28;20402;-64
2021/08/20 00:03:24;;;;;;;2.33;1.30;;;26.10;53.70;;;;;;4954025;28;20421;-64
2021/08/20 00:05:50;;;;;;;2.40;1.50;;;26.00;53.70;;;;;;4952818;29;20421;-65
2021/08/20 00:08:15;;;;;;;2.60;1.40;;;26.00;53.70;;;;;;4954091;28;20402;-65
2021/08/20 00:10:41;;;;;;;1.90;1.45;;;26.00;53.60;;;;;;4954018;28;20452;-65
2021/08/20 00:13:07;;;;;;;1.85;1.40;;;26.00;53.70;;;;;;4953366;28;20790;-64
2021/08/20 00:15:33;;;;;;;1.95;1.42;;;26.00;53.70;;;;;;4953824;28;20430;-65
2021/08/20 00:17:58;;;;;;;2.13;1.50;;;26.00;53.60;;;;;;4952597;29;20906;-64
2021/08/20 00:20:25;;;;;;;2.28;1.58;;;26.00;53.60;;;;;;4953821;28;20494;-64
2021/08/20 00:22:50;;;;;;;2.30;1.40;;;26.00;53.60;;;;;;4953492;28;20489;-64
2021/08/20 00:25:16;;;;;;;2.33;1.60;;;26.10;53.70;;;;;;4953589;28;20475;-64
2021/08/20 00:27:42;;;;;;;2.40;1.40;;;26.10;53.60;;;;;;4953666;28;20485;-65
2021/08/20 00:30:08;;;;;;;2.08;1.50;;;26.10;53.50;;;;;;4953753;28;20486;-64
2021/08/20 00:32:35;;;;;;;2.20;1.50;;;26.00;53.50;;;;;;4953484;28;20401;-65
2021/08/20 00:35:01;;;;;;;2.20;1.43;;;26.00;53.50;;;;;;4953196;28;20424;-65
2021/08/20 00:37:27;;;;;;;2.00;1.30;;;26.00;53.40;;;;;;4953602;28;20886;-65
2021/08/20 00:39:53;;;;;;;3.50;1.60;;;26.00;53.50;;;;;;4952361;29;20409;-64
2021/08/20 00:42:19;;;;;;;1.90;1.30;;;26.10;53.60;;;;;;4953000;28;20659;-64
2021/08/20 00:44:44;;;;;;;2.40;1.50;;;26.10;54.00;;;;;;4953439;28;20390;-65
2021/08/20 00:47:10;;;;;;;1.85;1.40;;;26.10;53.40;;;;;;4953052;28;20402;-64
2021/08/20 00:49:35;;;;;;;2.37;1.60;;;26.10;53.40;;;;;;4953468;28;20758;-65
2021/08/20 00:52:02;;;;;;;1.70;1.20;;;26.10;53.40;;;;;;4953445;28;20870;-64
2021/08/20 00:54:28;;;;;;;2.13;1.48;;;26.10;53.40;;;;;;4953412;28;20417;-64
2021/08/20 00:56:53;;;;;;;2.50;1.50;;;26.10;53.30;;;;;;4953204;28;20394;-64
2021/08/20 00:59:24;;;;;;;1.90;1.45;;;26.10;53.30;;;;;;4953166;28;20512;-64
2021/08/20 01:01:50;;;;;;;2.20;1.60;;;26.00;53.30;;;;;;4953688;28;20402;-65
2021/08/20 01:04:15;;;;;;;2.60;1.50;;;26.10;53.30;;;;;;4952644;28;20424;-65
2021/08/20 01:06:41;;;;;;;2.40;1.70;;;26.10;53.30;;;;;;4955035;28;20381;-64
2021/08/20 01:09:08;;;;;;;2.15;1.60;;;26.10;53.30;;;;;;4956868;28;20420;-65
2021/08/20 01:11:35;;;;;;;2.60;1.60;;;26.10;53.20;;;;;;4957193;28;20874;-65
2021/08/20 01:14:01;;;;;;;2.10;1.60;;;26.10;53.20;;;;;;4957242;28;20433;-65
2021/08/20 01:16:27;;;;;;;2.15;1.50;;;26.10;53.20;;;;;;4956989;28;20433;-64
2021/08/20 01:18:53;;;;;;;2.05;1.50;;;26.10;53.20;;;;;;4956903;28;20413;-64
2021/08/20 01:21:20;;;;;;;1.90;1.40;;;26.10;53.20;;;;;;4956904;28;20396;-64
2021/08/20 01:23:54;;;;;;;2.70;1.80;;;26.10;53.30;;;;;;4956971;28;20910;-64
2021/08/20 01:26:21;;;;;;;2.15;1.60;;;26.10;53.20;;;;;;4957005;28;20394;-64
2021/08/20 01:28:47;;;;;;;2.03;1.50;;;26.00;53.10;;;;;;4956988;28;20536;-64
2021/08/20 01:31:14;;;;;;;2.75;1.67;;;26.10;53.20;;;;;;4956503;28;20397;-64
2021/08/20 01:33:41;;;;;;;2.22;1.50;;;26.10;53.20;;;;;;4956498;28;20885;-64
2021/08/20 01:36:08;;;;;;;2.33;1.50;;;26.10;53.20;;;;;;4956954;28;20394;-64
2021/08/20 01:38:53;;;;;;;2.75;1.50;;;26.10;53.10;;;;;;4956702;28;21079;-65
2021/08/20 01:41:22;;;;;;;2.38;1.67;;;26.10;53.20;;;;;;4956336;28;20460;-64
2021/08/20 01:43:48;;;;;;;2.25;1.50;;;26.10;53.10;;;;;;4956708;28;20421;-65
2021/08/20 01:46:14;;;;;;;2.60;1.60;;;26.10;53.20;;;;;;4956644;28;20389;-64
2021/08/20 01:48:44;;;;;;;2.08;1.60;;;26.10;53.20;;;;;;4956772;28;20863;-65
2021/08/20 01:51:12;;;;;;;2.08;1.50;;;26.00;53.10;;;;;;4956058;28;20390;-64
2021/08/20 01:53:38;;;;;;;2.50;1.60;;;26.10;53.20;;;;;;4956496;28;20409;-64
2021/08/20 01:56:04;;;;;;;2.33;1.58;;;26.00;53.00;;;;;;4956549;28;20382;-64
2021/08/20 01:58:30;;;;;;;1.90;1.40;;;26.00;53.10;;;;;;4956594;28;20398;-65
2021/08/20 02:00:55;;;;;;;2.10;1.60;;;26.00;53.00;;;;;;4956136;28;20879;-64
2021/08/20 02:03:21;;;;;;;2.60;1.60;;;26.00;53.00;;;;;;4955973;28;20429;-64
2021/08/20 02:05:47;;;;;;;2.10;1.50;;;26.00;53.10;;;;;;4956266;28;20476;-65
2021/08/20 02:08:13;;;;;;;2.35;1.60;;;26.00;53.10;;;;;;4956352;28;20402;-65
2021/08/20 02:10:38;;;;;;;1.77;1.30;;;26.00;53.10;;;;;;4956137;28;20801;-65
2021/08/20 02:13:04;;;;;;;2.05;1.58;;;26.00;53.10;;;;;;4955755;28;20385;-64
2021/08/20 02:15:30;;;;;;;1.87;1.30;;;26.00;53.10;;;;;;4955983;28;20886;-64
2021/08/20 02:17:56;;;;;;;2.20;1.35;;;26.00;53.10;;;;;;4955798;28;20791;-64
2021/08/20 02:20:22;;;;;;;2.20;1.45;;;26.00;53.10;;;;;;4955406;28;20398;-65
2021/08/20 02:22:47;;;;;;;2.57;1.50;;;26.00;53.10;;;;;;4955656;28;20476;-65
2021/08/20 02:25:13;;;;;;;2.05;1.50;;;26.00;53.10;;;;;;4955425;28;20396;-65
2021/08/20 02:27:39;;;;;;;1.90;1.30;;;26.00;53.10;;;;;;4955827;28;20428;-65
2021/08/20 02:30:05;;;;;;;1.97;1.40;;;26.00;53.10;;;;;;4955832;28;20493;-65
2021/08/20 02:32:30;;;;;;;2.30;1.60;;;26.00;53.10;;;;;;4955750;28;20829;-64
2021/08/20 02:34:56;;;;;;;2.00;1.60;;;26.00;53.10;;;;;;4955334;28;20390;-64
2021/08/20 02:37:22;;;;;;;2.00;1.30;;;26.00;52.90;;;;;;4955414;28;20449;-65
2021/08/20 02:39:47;;;;;;;2.30;1.60;;;26.00;53.00;;;;;;4955635;28;20485;-65
2021/08/20 02:42:13;;;;;;;2.33;1.50;;;26.00;53.00;;;;;;4955539;28;20472;-65
2021/08/20 02:44:39;;;;;;;2.60;1.60;;;26.00;53.00;;;;;;4954285;29;20417;-64
2021/08/20 02:47:04;;;;;;;1.92;1.48;;;26.00;53.00;;;;;;4955081;28;20400;-64
2021/08/20 02:49:30;;;;;;;1.90;1.40;;;26.00;53.00;;;;;;4955478;28;20402;-65
2021/08/20 02:51:56;;;;;;;1.85;1.35;;;26.00;53.00;;;;;;4955534;28;20425;-64
2021/08/20 02:54:21;;;;;;;2.10;1.40;;;26.00;53.00;;;;;;4955410;28;20394;-65
2021/08/20 02:56:47;;;;;;;2.23;1.50;;;26.00;53.00;;;;;;4955416;28;20410;-65
2021/08/20 02:59:13;;;;;;;2.10;1.40;;;25.90;52.90;;;;;;4953594;29;20394;-64
2021/08/20 03:01:38;;;;;;;2.13;1.50;;;26.00;53.00;;;;;;4954061;29;20462;-65
2021/08/20 03:04:04;;;;;;;2.40;1.48;;;25.90;52.90;;;;;;4955202;28;20485;-65
2021/08/20 03:06:30;;;;;;;2.23;1.33;;;25.80;53.30;;;;;;4955104;28;20901;-64
2021/08/20 03:08:57;;;;;;;3.33;1.70;;;25.80;53.50;;;;;;4955116;28;20829;-64
2021/08/20 03:11:22;;;;;;;3.08;1.40;;;25.80;54.00;;;;;;4954774;28;20394;-65
2021/08/20 03:13:48;;;;;;;3.20;1.57;;;25.80;53.90;;;;;;4955049;28;20953;-64
2021/08/20 03:16:14;;;;;;;2.10;1.30;;;25.80;53.80;;;;;;4954963;28;20393;-65
2021/08/20 03:18:40;;;;;;;2.38;1.58;;;25.90;53.80;;;;;;4955008;28;20398;-64
2021/08/20 03:21:05;;;;;;;1.80;1.20;;;25.90;53.80;;;;;;4953629;28;20440;-65
2021/08/20 03:23:31;;;;;;;3.40;1.40;;;25.90;53.60;;;;;;4954608;28;20429;-65
2021/08/20 03:25:56;;;;;;;2.90;1.43;;;25.80;53.90;;;;;;4954797;28;20967;-65
2021/08/20 03:28:22;;;;;;;2.77;1.40;;;25.80;54.60;;;;;;4953092;28;20400;-65
2021/08/20 03:30:48;;;;;;;2.40;1.38;;;25.80;54.80;;;;;;4954672;28;20456;-65
2021/08/20 03:33:13;;;;;;;2.80;1.40;;;25.80;54.40;;;;;;4954129;28;20905;-65
2021/08/20 03:35:39;;;;;;;2.63;1.60;;;25.90;54.60;;;;;;4954632;28;20402;-65
2021/08/20 03:38:04;;;;;;;2.95;1.40;;;25.90;54.70;;;;;;4954647;28;20870;-65
2021/08/20 03:40:30;;;;;;;2.57;1.50;;;25.90;55.10;;;;;;4954506;28;20390;-65
2021/08/20 03:42:56;;;;;;;2.25;1.30;;;25.90;55.30;;;;;;4953131;28;20426;-65
2021/08/20 03:45:22;;;;;;;2.20;1.40;;;25.90;54.90;;;;;;4953475;28;20402;-65
2021/08/20 03:47:48;;;;;;;4.57;1.40;;;25.80;55.60;;;;;;4952874;28;20405;-65
2021/08/20 03:50:17;;;;;;;2.92;1.27;;;25.90;55.00;;;;;;4954589;28;20389;-65
2021/08/20 03:52:43;;;;;;;2.60;1.20;;;25.90;54.60;;;;;;4954271;28;20398;-65
2021/08/20 03:55:09;;;;;;;2.22;1.50;;;25.90;54.40;;;;;;4953826;28;20827;-65
2021/08/20 03:57:34;;;;;;;2.85;1.30;;;25.90;54.20;;;;;;4954120;28;20791;-64
2021/08/20 04:00:00;;;;;;;2.97;1.43;;;25.90;54.40;;;;;;4954227;28;20441;-65
2021/08/20 04:02:26;;;;;;;4.90;1.63;;;25.90;54.80;;;;;;4953845;28;20401;-65
2021/08/20 04:04:51;;;;;;;3.20;1.50;;;25.90;54.30;;;;;;4954034;28;20442;-65
2021/08/20 04:07:20;;;;;;;2.10;1.30;;;25.80;53.80;;;;;;4953490;28;20402;-65
2021/08/20 04:09:48;;;;;;;3.40;1.33;;;25.80;53.90;;;;;;4954028;28;20432;-65
2021/08/20 04:12:15;;;;;;;3.47;1.45;;;25.90;53.70;;;;;;4953964;28;20488;-65
2021/08/20 04:14:41;;;;;;;3.70;1.40;;;25.90;53.90;;;;;;4952689;29;20775;-65
2021/08/20 04:17:07;;;;;;;5.25;1.40;;;25.80;53.80;;;;;;4953518;28;20874;-64
2021/08/20 04:19:33;;;;;;;3.10;1.45;;;25.80;53.70;;;;;;4953862;28;20402;-65
2021/08/20 04:21:59;;;;;;;4.10;1.67;;;25.80;54.00;;;;;;4953914;28;20442;-66
2021/08/20 04:24:24;;;;;;;3.37;1.50;;;25.80;54.00;;;;;;4953749;28;20422;-65
2021/08/20 04:26:50;;;;;;;2.20;1.40;;;25.80;53.90;;;;;;4952589;29;20500;-66
2021/08/20 04:29:16;;;;;;;2.50;1.37;;;25.90;54.00;;;;;;4953267;28;20871;-65
2021/08/20 04:31:41;;;;;;;2.60;1.30;;;25.80;53.80;;;;;;4953755;28;20398;-65
2021/08/20 04:34:07;;;;;;;1.60;1.23;;;25.80;53.90;;;;;;4953793;28;20393;-65
2021/08/20 04:36:33;;;;;;;2.30;1.40;;;25.80;54.00;;;;;;4952438;29;20928;-65
2021/08/20 04:38:58;;;;;;;2.13;1.30;;;25.80;53.90;;;;;;4953726;28;20393;-65
2021/08/20 04:41:24;;;;;;;1.93;1.20;;;25.80;53.90;;;;;;4952132;28;20513;-65
2021/08/20 04:43:50;;;;;;;2.38;1.40;;;25.80;53.80;;;;;;4952312;29;20441;-65
2021/08/20 04:46:16;;;;;;;4.15;1.60;;;25.80;53.90;;;;;;4953367;28;20398;-65
2021/08/20 04:48:42;;;;;;;3.60;1.70;;;25.80;53.90;;;;;;4953433;28;20402;-65
2021/08/20 04:51:08;;;;;;;2.97;1.57;;;25.80;53.30;;;;;;4953016;28;20394;-64
2021/08/20 04:53:35;;;;;;;3.50;1.95;;;25.80;53.20;;;;;;4953475;28;20762;-65
2021/08/20 04:56:00;;;;;;;3.00;2.08;;;25.70;52.50;;;;;;4953422;28;20386;-65
2021/08/20 04:58:26;;;;;;;7.38;2.08;;;25.70;52.50;;;;;;4953283;28;20480;-64
2021/08/20 05:00:52;;;;;;;5.07;2.00;;;25.60;52.30;;;;;;4952095;29;20394;-65
2021/08/20 05:03:18;;;;;;;6.47;2.20;;;25.60;52.60;;;;;;4952694;28;20902;-65
2021/08/20 05:05:45;;;;;;;5.95;1.90;;;25.60;52.80;;;;;;4952869;28;20453;-64
2021/08/20 05:08:10;;;;;;;5.00;1.92;;;25.60;52.50;;;;;;4952943;28;20408;-64
2021/08/20 05:10:37;;;;;;;4.17;1.93;;;25.60;52.80;;;;;;4952756;28;20476;-65
2021/08/20 05:13:03;;;;;;;6.07;1.70;;;25.60;52.70;;;;;;4952880;28;20799;-63
2021/08/20 05:15:29;;;;;;;4.82;1.95;;;25.60;52.80;;;;;;4953061;28;20712;-64
2021/08/20 05:17:54;;;;;;;3.60;1.67;;;25.60;52.80;;;;;;4952572;28;21050;-64
2021/08/20 05:20:20;;;;;;;3.53;1.80;;;25.60;52.80;;;;;;4952932;28;20497;-65
2021/08/20 05:22:48;;;;;;;3.50;1.85;;;25.60;52.80;;;;;;4952417;29;20409;-65
2021/08/20 05:25:15;;;;;;;3.35;1.83;;;25.60;52.80;;;;;;4952396;28;20394;-64
2021/08/20 05:27:41;;;;;;;4.00;1.70;;;25.60;52.80;;;;;;4952621;28;20720;-64
2021/08/20 05:30:08;;;;;;;2.45;1.48;;;25.70;52.90;;;;;;4952559;28;20394;-64
2021/08/20 05:32:33;;;;;;;3.00;1.60;;;25.60;52.80;;;;;;4952851;28;20386;-64
2021/08/20 05:34:59;;;;;;;3.72;1.60;;;25.60;52.90;;;;;;4952380;28;20405;-64
2021/08/20 05:37:25;;;;;;;2.67;1.73;;;25.60;52.90;;;;;;4951681;28;20397;-64
2021/08/20 05:39:51;;;;;;;4.07;1.80;;;25.60;52.90;;;;;;4952797;28;20425;-64
2021/08/20 05:42:16;;;;;;;2.92;1.80;;;25.60;52.90;;;;;;4952156;28;20440;-64
2021/08/20 05:44:42;;;;;;;2.60;1.55;;;25.60;52.90;;;;;;4952432;28;20790;-65
2021/08/20 05:47:07;;;;;;;2.67;1.63;;;25.60;52.90;;;;;;4952678;28;20402;-64
2021/08/20 05:49:33;;;;;;;2.97;1.63;;;25.60;53.00;;;;;;4951827;28;20398;-65
2021/08/20 05:51:59;;;;;;;2.17;1.60;;;25.60;53.00;;;;;;4953098;28;20937;-65
2021/08/20 05:54:24;;;;;;;3.07;1.70;;;25.60;53.00;;;;;;4956406;28;20396;-65
2021/08/20 05:56:51;;;;;;;3.53;1.90;;;25.60;53.00;;;;;;4955717;28;20464;-65
2021/08/20 05:59:17;;;;;;;5.68;2.10;;;25.50;53.00;;;;;;4955454;28;20389;-65
2021/08/20 06:01:43;;;;;;;4.23;2.10;;;25.50;53.00;;;;;;4955980;28;20449;-64
2021/08/20 06:04:08;;;;;;;4.20;1.90;;;25.50;53.00;;;;;;4986740;28;20434;-64
2021/08/20 06:06:37;;;;;;;2.53;1.80;;;25.50;53.00;;;;;;4955728;28;20421;-64
2021/08/20 06:09:03;;;;;;;2.30;1.70;;;25.50;53.10;;;;;;4956208;28;20401;-64
2021/08/20 06:11:28;;;;;;;3.73;1.80;;;25.50;53.20;;;;;;4955032;28;20794;-65
2021/08/20 06:13:54;;;;;;;3.10;1.90;;;25.50;53.30;;;;;;4955722;28;20506;-65
2021/08/20 06:16:20;;;;;;;5.88;1.85;;;25.50;53.30;;;;;;4955708;28;20424;-64
2021/08/20 06:18:46;;;;;;;2.53;1.75;;;25.50;53.30;;;;;;4955899;28;20401;-64
2021/08/20 06:21:12;;;;;;;2.50;1.73;;;25.50;53.30;;;;;;4954531;28;20514;-63
2021/08/20 06:23:38;;;;;;;2.80;1.90;;;25.50;53.40;;;;;;4955963;28;20425;-64
2021/08/20 06:26:03;;;;;;;3.50;1.60;;;25.50;53.40;;;;;;4956005;28;20445;-64
2021/08/20 06:28:30;;;;;;;3.25;1.80;;;25.40;53.30;;;;;;4956002;29;20908;-64
2021/08/20 06:30:57;;;;;;;2.90;1.90;;;25.40;53.40;;;;;;4955948;28;20386;-64
2021/08/20 06:33:22;;;;;;;4.82;2.45;;;25.40;53.50;;;;;;4955315;28;20488;-64
2021/08/20 06:35:48;;;;;;;4.33;2.33;;;25.40;53.70;;;;;;4955514;28;20525;-65
2021/08/20 06:38:14;;;;;;;7.30;2.80;;;25.40;54.00;;;;;;4955765;28;20406;-65
2021/08/20 06:40:39;;;;;;;5.73;2.80;;;25.30;54.10;;;;;;4954371;29;20898;-64
2021/08/20 06:43:06;;;;;;;6.93;3.50;;;25.30;54.30;;;;;;4954174;29;20436;-64
2021/08/20 06:45:33;;;;;;;5.35;3.00;;;25.40;54.20;;;;;;4955101;28;20424;-64
2021/08/20 06:47:58;;;;;;;6.25;2.70;;;25.40;54.10;;;;;;4953958;29;20898;-64
2021/08/20 06:50:24;;;;;;;5.90;3.00;;;25.40;53.80;;;;;;4954918;28;20405;-64
2021/08/20 06:52:49;;;;;;;4.70;2.90;;;25.40;54.00;;;;;;4954989;28;20422;-63
2021/08/20 06:55:15;;;;;;;5.90;2.87;;;25.40;54.00;;;;;;4954645;28;20398;-64
2021/08/20 06:57:41;;;;;;;6.15;3.10;;;25.40;53.80;;;;;;4953791;28;20420;-65
2021/08/20 07:00:08;;;;;;;6.53;3.20;;;25.40;54.50;;;;;;4954066;28;20398;-65
2021/08/20 07:02:47;;;;;;;4.40;3.03;;;25.40;53.90;;;;;;4952609;29;20414;-65
2021/08/20 07:05:14;;;;;;;5.43;3.20;;;25.40;54.10;;;;;;4950387;29;20516;-63
2021/08/20 07:07:40;;;;;;;10.40;3.63;;;25.40;54.90;;;;;;4953546;28;20886;-66
2021/08/20 07:10:11;;;;;;;5.22;3.30;;;25.40;55.30;;;;;;4953545;28;20398;-64
2021/08/20 07:12:38;;;;;;;6.33;3.30;;;25.40;54.70;;;;;;4953279;28;20904;-64
2021/08/20 07:15:05;;;;;;;5.53;3.35;;;25.40;54.80;;;;;;4960354;28;20408;-64
2021/08/20 07:17:31;;;;;;;6.10;3.42;;;25.40;54.80;;;;;;4952897;28;20468;-65
2021/08/20 07:19:58;;;;;;;4.65;3.00;;;25.40;55.10;;;;;;4953614;28;20398;-64
2021/08/20 07:22:24;;;;;;;6.05;3.42;;;25.40;56.20;;;;;;4952935;28;20934;-64
2021/08/20 07:24:50;;;;;;;4.80;3.40;;;25.40;55.30;;;;;;4953280;28;20437;-65
2021/08/20 07:27:15;;;;;;;4.72;3.40;;;25.50;55.40;;;;;;4952844;28;20755;-64
2021/08/20 07:29:41;;;;;;;6.03;3.50;;;25.40;55.00;;;;;;4953198;28;20416;-65
2021/08/20 07:32:07;;;;;;;7.15;3.33;;;25.50;55.50;;;;;;4950959;29;20477;-64
2021/08/20 07:34:33;;;;;;;5.67;2.63;;;25.40;55.10;;;;;;4953309;28;20398;-63
2021/08/20 07:36:59;;;;;;;7.15;3.15;;;25.40;54.50;;;;;;4952890;28;20953;-64
2021/08/20 07:39:26;;;;;;;8.43;2.92;;;25.40;54.70;;;;;;4952198;28;20409;-63
2021/08/20 07:41:53;;;;;;;6.88;3.30;;;25.40;54.40;;;;;;4954070;28;20432;-64
2021/08/20 07:44:19;;;;;;;5.85;3.00;;;25.40;53.70;;;;;;4954266;28;20428;-63
2021/08/20 07:46:44;;;;;;;5.38;3.00;;;25.40;54.00;;;;;;4954128;28;20390;-64
2021/08/20 07:49:10;;;;;;;5.67;3.50;;;25.40;53.80;;;;;;4953985;28;20402;-64
2021/08/20 07:51:36;;;;;;;5.55;3.15;;;25.30;54.10;;;;;;4953831;28;20397;-64
2021/08/20 07:54:02;;;;;;;4.80;3.00;;;25.40;54.80;;;;;;4953712;28;20402;-64
2021/08/20 07:56:27;;;;;;;4.45;3.00;;;25.40;55.00;;;;;;4953558;28;20902;-64
2021/08/20 07:58:53;;;;;;;5.20;3.17;;;25.40;56.30;;;;;;4953572;28;20616;-64
2021/08/20 08:01:19;;;;;;;5.75;2.95;;;25.40;56.30;;;;;;4953435;28;20835;-63
2021/08/20 08:03:44;;;;;;;5.97;3.27;;;25.40;56.40;;;;;;4953512;28;20421;-64
2021/08/20 08:06:13;;;;;;;6.07;3.35;;;25.40;56.40;;;;;;4953766;28;20390;-63
2021/08/20 08:08:39;;;;;;;4.85;3.28;;;25.40;55.60;;;;;;4953882;28;20394;-64
2021/08/20 08:11:05;;;;;;;10.32;3.40;;;25.40;55.30;;;;;;4953845;28;20903;-64
2021/08/20 08:13:31;;;;;;;6.75;3.40;;;25.40;56.20;;;;;;4951000;29;20799;-64
2021/08/20 08:15:57;;;;;;;5.85;3.25;;;25.50;55.10;;;;;;4952325;28;20390;-64
2021/08/20 08:18:23;;;;;;;5.53;3.30;;;25.50;54.50;;;;;;4952190;28;20829;-65
2021/08/20 08:20:49;;;;;;;5.20;2.90;;;25.50;56.70;;;;;;4952263;28;20398;-64
2021/08/20 08:23:15;;;;;;;5.78;3.10;;;25.60;55.40;;;;;;4952074;28;20437;-64
2021/08/20 08:25:41;;;;;;;5.90;3.17;;;25.60;54.30;;;;;;4951814;28;20416;-64
2021/08/20 08:28:07;;;;;;;4.93;3.22;;;25.60;54.30;;;;;;4952345;28;20758;-68
2021/08/20 08:30:38;;;;;;;4.72;3.53;;;25.60;54.20;;;;;;4951014;28;20398;-65
2021/08/20 08:33:06;;;;;;;5.10;3.30;;;25.60;54.10;;;;;;4952487;28;20432;-64
2021/08/20 08:35:32;;;;;;;4.88;3.33;;;25.60;54.00;;;;;;4950624;29;20406;-65
2021/08/20 08:38:12;;;;;;;4.88;3.10;;;25.60;53.80;;;;;;4952396;28;20390;-64
2021/08/20 08:40:45;;;;;;;5.93;3.10;;;25.60;54.10;;;;;;4951370;29;20402;-63
2021/08/20 08:43:11;;;;;;;4.45;3.40;;;25.70;53.80;;;;;;4953190;28;20426;-65
2021/08/20 08:45:38;;;;;;;5.88;3.50;;;25.70;53.90;;;;;;4953139;28;20806;-65
2021/08/20 08:48:06;;;;;;;7.38;3.63;;;25.60;54.00;;;;;;4953678;28;20409;-67
2021/08/20 08:50:33;;;;;;;6.05;3.10;;;25.60;53.90;;;;;;4953446;28;20444;-67
2021/08/20 08:53:00;;;;;;;7.87;3.20;;;25.60;54.00;;;;;;4951836;28;20752;-66
2021/08/20 08:55:26;;;;;;;32.47;5.35;;;25.60;54.10;;;;;;4952410;28;20394;-66
2021/08/20 08:57:51;;;;;;;61.43;6.40;;;25.60;54.10;;;;;;4953524;28;20401;-66
2021/08/20 09:00:32;;;;;;;31.15;5.25;;;25.60;54.90;;;;;;4953188;28;20401;-67
2021/08/20 09:02:59;;;;;;;17.02;3.88;;;25.60;55.90;;;;;;4953440;28;20489;-69
2021/08/20 09:05:25;;;;;;;9.73;3.63;;;25.70;56.30;;;;;;4952888;28;20394;-67
2021/08/20 09:07:53;;;;;;;11.57;3.60;;;25.60;55.80;;;;;;4953496;28;20759;-68
2021/08/20 09:10:21;;;;;;;9.93;3.65;;;25.60;55.40;;;;;;4953414;28;20398;-69
2021/08/20 09:12:52;;;;;;;6.13;3.33;;;25.60;55.10;;;;;;4953393;28;20401;-67
2021/08/20 09:15:19;;;;;;;7.90;3.40;;;25.60;54.40;;;;;;4951824;29;20906;-67
2021/08/20 09:17:49;;;;;;;4.97;3.33;;;25.70;54.40;;;;;;4951978;29;20891;-68
2021/08/20 09:20:19;;;;;;;6.07;3.10;;;25.60;54.40;;;;;;4952983;28;20459;-66
2021/08/20 09:22:46;;;;;;;7.60;3.30;;;25.70;54.30;;;;;;4953325;28;20441;-69
2021/08/20 09:25:34;;;;;;;5.35;3.22;;;25.60;54.50;;;;;;4953114;28;20949;-67
2021/08/20 09:28:08;;;;;;;4.65;3.38;;;25.70;54.30;;;;;;4955403;28;20406;-68
2021/08/20 09:30:34;;;;;;;5.28;3.20;;;25.70;54.80;;;;;;4955444;28;20878;-67
2021/08/20 09:33:00;;;;;;;6.10;3.20;;;25.70;54.30;;;;;;4956728;28;20409;-68
2021/08/20 09:35:34;;;;;;;4.03;2.60;;;25.70;54.30;;;;;;4956233;28;20514;-68
2021/08/20 09:38:08;;;;;;;5.93;3.20;;;25.70;54.40;;;;;;4956537;28;20390;-68
2021/08/20 09:40:33;;;;;;;4.55;2.72;;;25.70;54.20;;;;;;4956691;28;20405;-68
2021/08/20 09:43:18;;;;;;;4.33;3.00;;;25.70;54.40;;;;;;4956498;28;20433;-68
2021/08/20 09:46:00;;;;;;;4.93;3.10;;;25.70;54.30;;;;;;4956727;28;20398;-67
2021/08/20 09:48:39;;;;;;;4.55;3.05;;;25.70;54.20;;;;;;4956620;28;20902;-68
2021/08/20 09:51:05;;;;;;;4.18;2.92;;;25.70;54.30;;;;;;4956670;28;20390;-68
2021/08/20 09:53:31;;;;;;;4.07;3.13;;;25.70;54.30;;;;;;4956609;28;20413;-67
2021/08/20 09:56:03;;;;;;;5.10;2.80;;;25.70;54.20;;;;;;4956464;28;20397;-67
2021/08/20 09:58:32;;;;;;;3.75;2.88;;;25.70;54.30;;;;;;4956501;28;20442;-68
2021/08/20 10:01:03;;;;;;;4.33;3.10;;;25.60;54.20;;;;;;4956417;28;20389;-67
2021/08/20 10:03:32;;;;;;;4.68;3.00;;;25.70;54.30;;;;;;4955748;28;20417;-68
2021/08/20 10:06:00;;;;;;;5.20;3.17;;;25.60;54.20;;;;;;4956425;28;20401;-68
2021/08/20 10:08:29;;;;;;;5.57;3.10;;;25.60;54.30;;;;;;4955053;29;20405;-67
2021/08/20 10:10:57;;;;;;;5.88;3.33;;;25.70;54.30;;;;;;4955665;28;20390;-68
2021/08/20 10:13:24;;;;;;;4.15;3.20;;;25.60;54.10;;;;;;4955590;28;20402;-63
2021/08/20 10:15:50;;;;;;;4.63;2.80;;;25.60;54.10;;;;;;4955760;28;20429;-68
2021/08/20 10:18:16;;;;;;;4.85;2.95;;;25.70;54.20;;;;;;4954953;28;20932;-69
2021/08/20 10:20:43;;;;;;;4.35;3.03;;;25.60;54.10;;;;;;4955036;28;20478;-68
2021/08/20 10:23:15;;;;;;;4.18;2.90;;;25.60;54.30;;;;;;4954742;28;20970;-69
2021/08/20 10:25:41;;;;;;;4.15;2.92;;;25.60;54.40;;;;;;4954360;28;20902;-68
2021/08/20 10:28:10;;;;;;;5.00;3.00;;;25.70;54.40;;;;;;4954760;28;20413;-68
2021/08/20 10:30:37;;;;;;;4.68;2.97;;;25.70;54.40;;;;;;4954345;28;20488;-68
2021/08/20 10:33:06;;;;;;;4.82;2.88;;;25.60;54.20;;;;;;4954879;28;20476;-68
2021/08/20 10:36:01;;;;;;;4.47;2.85;;;25.70;54.30;;;;;;4953980;28;20393;-68
2021/08/20 10:38:29;;;;;;;4.00;2.60;;;25.70;54.40;;;;;;4951953;28;20909;-69
2021/08/20 10:41:17;;;;;;;4.18;3.00;;;25.60;54.30;;;;;;4955132;28;20914;-68
2021/08/20 10:44:02;;;;;;;5.30;3.10;;;25.60;54.40;;;;;;4955013;28;20509;-67
2021/08/20 10:46:33;;;;;;;5.13;3.00;;;25.70;54.40;;;;;;4955568;28;20447;-68
2021/08/20 10:49:14;;;;;;;5.40;2.95;;;25.60;54.30;;;;;;4955584;28;20409;-67
2021/08/20 10:51:49;;;;;;;3.85;3.05;;;25.70;54.30;;;;;;4954984;28;20401;-67
2021/08/20 10:54:41;;;;;;;4.93;3.10;;;25.70;54.20;;;;;;4955478;28;20401;-68
2021/08/20 10:57:08;;;;;;;3.67;2.80;;;25.70;54.00;;;;;;4954566;29;20493;-68
2021/08/20 10:59:39;;;;;;;3.35;2.53;;;25.70;54.30;;;;;;4951501;29;20394;-68
2021/08/20 11:02:21;;;;;;;16.25;13.55;;;25.80;54.80;;;;;;4955556;29;20417;-68
2021/08/20 11:04:57;;;;;;;10.40;8.32;;;26.00;55.00;;;;;;4955414;29;20508;-68
2021/08/20 11:07:44;;;;;;;7.82;6.32;;;26.10;55.10;;;;;;4955211;28;20398;-68
2021/08/20 11:10:09;;;;;;;7.75;6.30;;;26.10;54.80;;;;;;4955405;28;20907;-68
2021/08/20 11:12:49;;;;;;;5.70;4.30;;;26.10;54.80;;;;;;4953725;28;20445;-68
2021/08/20 11:15:20;;;;;;;5.80;4.43;;;26.10;54.40;;;;;;4953637;29;20510;-68
2021/08/20 11:17:49;;;;;;;5.97;3.75;;;26.20;54.20;;;;;;4954286;28;21101;-64
2021/08/20 11:20:37;;;;;;;6.07;3.80;;;26.20;54.20;;;;;;4953676;28;20427;-67
2021/08/20 11:23:12;;;;;;;5.03;3.60;;;26.20;54.60;;;;;;4954935;28;20489;-67
2021/08/20 11:25:44;;;;;;;5.45;4.10;;;26.30;54.80;;;;;;4954449;28;20394;-68
2021/08/20 11:28:21;;;;;;;5.45;3.88;;;26.40;54.80;;;;;;4953427;29;20409;-67
2021/08/20 11:31:15;;;;;;;5.75;3.63;;;26.50;54.60;;;;;;4954607;28;20393;-68
2021/08/20 11:33:41;;;;;;;6.07;4.10;;;26.50;54.80;;;;;;4953081;28;20421;-68
2021/08/20 11:36:17;;;;;;;8.15;3.90;;;26.50;55.20;;;;;;4954566;28;20413;-68
2021/08/20 11:38:51;;;;;;;7.07;3.85;;;26.60;57.00;;;;;;4954560;28;20747;-69
2021/08/20 11:41:29;;;;;;;5.53;3.92;;;26.70;56.30;;;;;;4954318;28;20426;-66
2021/08/20 11:43:57;;;;;;;7.07;4.30;;;26.70;56.90;;;;;;4954453;28;20521;-65
2021/08/20 11:46:28;;;;;;;5.47;4.35;;;26.70;57.10;;;;;;4953347;28;20402;-68
2021/08/20 11:48:57;;;;;;;5.85;4.38;;;26.80;56.80;;;;;;4953126;28;20410;-69
2021/08/20 11:51:28;;;;;;;5.32;4.00;;;26.90;56.90;;;;;;4950473;29;21236;-65
2021/08/20 11:53:59;;;;;;;7.10;4.47;;;26.90;56.10;;;;;;4953349;28;20405;-68
2021/08/20 11:56:25;;;;;;;5.30;4.20;;;26.90;56.00;;;;;;4951092;29;20890;-69
2021/08/20 11:58:51;;;;;;;6.55;4.97;;;27.00;56.50;;;;;;4954904;28;20404;-66
2021/08/20 12:01:32;;;;;;;6.60;4.40;;;27.10;55.70;;;;;;4972136;28;20451;-68
2021/08/20 12:03:59;;;;;;;4.35;3.63;;;27.40;54.80;;;;;;4972091;28;20428;-67
2021/08/20 12:06:26;;;;;;;4.93;3.63;;;27.40;54.30;;;;;;4972147;28;20436;-68
2021/08/20 12:08:56;;;;;;;5.63;3.90;;;27.40;54.30;;;;;;4972368;28;20404;-69
2021/08/20 12:11:24;;;;;;;4.40;3.90;;;27.40;54.30;;;;;;4972227;28;20507;-68
2021/08/20 12:13:52;;;;;;;4.63;3.80;;;27.40;54.20;;;;;;4970722;28;20408;-69
2021/08/20 12:16:40;;;;;;;4.85;3.90;;;27.40;54.30;;;;;;4972052;28;20462;-68
2021/08/20 12:19:22;;;;;;;4.80;3.70;;;27.30;54.20;;;;;;4970160;28;20395;-68
2021/08/20 12:21:55;;;;;;;5.07;3.58;;;27.20;54.20;;;;;;4969756;28;20392;-67
2021/08/20 12:24:45;;;;;;;4.80;3.60;;;27.20;54.20;;;;;;4969479;28;20423;-68
2021/08/20 12:27:13;;;;;;;4.57;3.78;;;27.10;54.10;;;;;;4970691;28;20454;-68
2021/08/20 12:29:39;;;;;;;3.97;3.37;;;27.10;54.30;;;;;;4969977;28;20393;-68
2021/08/20 12:32:04;;;;;;;4.38;3.70;;;27.10;54.30;;;;;;4971773;28;20872;-68
2021/08/20 12:34:35;;;;;;;4.68;3.67;;;27.00;54.30;;;;;;4971786;28;20796;-68
2021/08/20 12:37:05;;;;;;;4.13;3.13;;;27.00;54.50;;;;;;4969400;28;20384;-68
2021/08/20 12:39:34;;;;;;;4.43;3.40;;;27.00;54.30;;;;;;4972358;28;20483;-66
2021/08/20 12:42:22;;;;;;;4.68;3.70;;;27.00;54.20;;;;;;4972593;28;20408;-67
2021/08/20 12:45:04;;;;;;;3.60;3.10;;;27.00;54.10;;;;;;4973021;28;20420;-68
2021/08/20 12:47:30;;;;;;;4.35;3.20;;;27.00;54.10;;;;;;4972455;28;21478;-68
2021/08/20 12:50:07;;;;;;;4.07;3.17;;;27.00;54.00;;;;;;4972697;28;20396;-68